createdAt,value
2019-02-27T00:00:50.275Z,92.40
2019-02-27T00:03:19.251Z,92.50
2019-02-27T00:05:48.042Z,92.90
2019-02-27T00:08:16.888Z,93.00
2019-02-27T00:10:45.923Z,93.40
2019-02-27T00:13:14.596Z,93.80
2019-02-27T00:15:43.293Z,93.20
2019-02-27T00:18:14.186Z,92.50
2019-02-27T00:20:43.135Z,92.50
2019-02-27T00:23:11.926Z,92.80
2019-02-27T00:25:40.698Z,92.50
2019-02-27T00:28:10.425Z,90.90
2019-02-27T00:30:39.040Z,92.30
2019-02-27T00:33:08.170Z,92.00
2019-02-27T00:35:38.634Z,91.60
2019-02-27T00:38:07.106Z,91.80
2019-02-27T00:40:38.684Z,92.40
2019-02-27T00:43:07.080Z,92.60
2019-02-27T00:45:39.881Z,92.60
2019-02-27T00:48:06.037Z,92.40
2019-02-27T00:50:38.889Z,91.80
2019-02-27T00:53:04.902Z,92.50
2019-02-27T00:55:38.617Z,92.80
2019-02-27T00:58:03.828Z,92.70
2019-02-27T01:00:32.490Z,93.20
2019-02-27T01:03:01.517Z,93.60
2019-02-27T01:05:30.138Z,93.30
2019-02-27T01:07:58.797Z,92.70
2019-02-27T01:10:27.769Z,93.00
2019-02-27T01:12:58.103Z,93.20
2019-02-27T01:15:27.558Z,93.20
2019-02-27T01:17:57.428Z,93.00
2019-02-27T01:20:26.475Z,92.50
2019-02-27T01:22:56.075Z,91.80
2019-02-27T01:25:24.684Z,91.30
2019-02-27T01:27:53.250Z,91.00
2019-02-27T01:30:23.841Z,91.50
2019-02-27T01:32:52.482Z,91.80
2019-02-27T01:35:21.159Z,91.80
2019-02-27T01:37:49.832Z,91.60
2019-02-27T01:40:18.704Z,91.20
2019-02-27T01:42:47.678Z,90.80
2019-02-27T01:45:20.681Z,89.80
2019-02-27T01:47:46.902Z,88.60
2019-02-27T01:50:27.370Z,89.40
2019-02-27T01:52:56.388Z,90.00
2019-02-27T01:55:25.017Z,90.00
2019-02-27T01:57:54.050Z,89.50
2019-02-27T02:00:23.293Z,89.40
2019-02-27T02:02:52.635Z,90.40
2019-02-27T02:05:26.265Z,90.60
2019-02-27T02:08:13.966Z,90.20
2019-02-27T02:10:41.645Z,90.50
2019-02-27T02:13:15.128Z,90.70
2019-02-27T02:15:47.749Z,90.60
2019-02-27T02:18:37.766Z,90.50
2019-02-27T02:21:21.587Z,91.00
2019-02-27T02:23:58.930Z,90.60
2019-02-27T02:26:42.205Z,91.10
2019-02-27T02:29:28.666Z,90.70
2019-02-27T02:32:00.424Z,90.80
2019-02-27T02:34:40.291Z,91.20
2019-02-27T02:37:39.193Z,90.90
2019-02-27T02:40:13.965Z,90.80
2019-02-27T02:43:03.836Z,90.50
2019-02-27T02:45:44.622Z,90.50
2019-02-27T02:48:32.087Z,90.60
2019-02-27T02:51:28.713Z,90.80
2019-02-27T02:54:05.994Z,90.90
2019-02-27T02:57:04.952Z,90.20
2019-02-27T02:59:52.205Z,88.90
2019-02-27T03:02:33.199Z,88.90
2019-02-27T03:05:36.063Z,88.00
2019-02-27T03:08:21.000Z,87.10
2019-02-27T03:10:56.170Z,86.90
2019-02-27T03:13:45.532Z,86.40
2019-02-27T03:16:32.859Z,86.00
2019-02-27T03:19:07.216Z,85.80
2019-02-27T03:21:45.383Z,86.20
2019-02-27T03:24:27.888Z,86.40
2019-02-27T03:26:59.618Z,86.70
2019-02-27T03:29:52.001Z,86.70
2019-02-27T03:32:23.085Z,86.50
2019-02-27T03:34:57.901Z,86.60
2019-02-27T03:37:38.882Z,87.40
2019-02-27T03:40:11.770Z,88.40
2019-02-27T03:42:49.884Z,88.80
2019-02-27T03:45:21.660Z,89.40
2019-02-27T03:48:02.492Z,89.10
2019-02-27T03:50:49.832Z,88.50
2019-02-27T03:53:19.896Z,88.40
2019-02-27T03:55:57.502Z,89.10
2019-02-27T03:58:38.153Z,88.50
2019-02-27T04:01:30.096Z,89.60
2019-02-27T04:04:04.224Z,89.20
2019-02-27T04:06:35.995Z,88.50
2019-02-27T04:09:08.028Z,88.60
2019-02-27T04:11:41.437Z,88.50
2019-02-27T04:14:26.826Z,88.80
2019-02-27T04:16:55.437Z,88.50
2019-02-27T04:19:24.135Z,89.40
2019-02-27T04:21:53.707Z,90.00
2019-02-27T04:24:23.137Z,89.90
2019-02-27T04:26:53.123Z,89.60
2019-02-27T04:29:21.734Z,89.00
2019-02-27T04:31:50.376Z,89.10
2019-02-27T04:34:18.990Z,89.70
2019-02-27T04:36:47.801Z,89.40
2019-02-27T04:39:16.482Z,90.00
2019-02-27T04:41:45.470Z,90.60
2019-02-27T04:44:14.052Z,90.20
2019-02-27T04:46:42.700Z,89.20
2019-02-27T04:49:11.357Z,90.00
2019-02-27T04:51:40.015Z,88.80
2019-02-27T04:54:08.651Z,89.30
2019-02-27T04:56:37.308Z,90.00
2019-02-27T04:59:05.979Z,90.30
2019-02-27T05:01:36.662Z,90.10
2019-02-27T05:04:05.617Z,90.00
2019-02-27T05:06:34.293Z,90.10
2019-02-27T05:09:03.441Z,90.20
2019-02-27T05:11:32.429Z,90.30
2019-02-27T05:14:01.033Z,90.00
2019-02-27T05:16:29.677Z,90.50
2019-02-27T05:19:00.923Z,90.20
2019-02-27T05:21:29.038Z,90.20
2019-02-27T05:23:57.689Z,90.00
2019-02-27T05:26:27.348Z,90.20
2019-02-27T05:28:56.452Z,90.10
2019-02-27T05:31:25.390Z,90.30
2019-02-27T05:33:54.009Z,90.20
2019-02-27T05:36:22.682Z,90.20
2019-02-27T05:38:51.292Z,90.40
2019-02-27T05:41:19.905Z,90.30
2019-02-27T05:43:48.705Z,90.30
2019-02-27T05:46:17.417Z,90.10
2019-02-27T05:48:46.075Z,90.00
2019-02-27T05:51:15.079Z,90.10
2019-02-27T05:53:43.769Z,90.30
2019-02-27T05:56:15.611Z,90.10
2019-02-27T05:58:42.635Z,90.40
2019-02-27T06:01:11.668Z,90.30
2019-02-27T06:03:40.660Z,90.30
2019-02-27T06:06:11.575Z,90.20
2019-02-27T06:08:39.574Z,90.10
2019-02-27T06:11:08.152Z,89.60
2019-02-27T06:13:37.132Z,89.60
2019-02-27T06:16:08.930Z,89.00
2019-02-27T06:18:36.384Z,89.60
2019-02-27T06:21:06.013Z,89.70
2019-02-27T06:23:35.335Z,90.00
2019-02-27T06:26:05.259Z,90.50
2019-02-27T06:28:33.885Z,90.60
2019-02-27T06:31:03.140Z,90.50
2019-02-27T06:33:31.800Z,90.60
2019-02-27T06:36:01.307Z,90.60
2019-02-27T06:38:29.944Z,90.60
2019-02-27T06:40:59.377Z,90.50
2019-02-27T06:43:28.271Z,90.70
2019-02-27T06:45:56.893Z,91.00
2019-02-27T06:48:31.779Z,90.90
2019-02-27T06:51:02.924Z,91.30
2019-02-27T06:53:36.198Z,91.50
2019-02-27T06:56:06.368Z,90.80
2019-02-27T06:58:36.868Z,91.00
2019-02-27T07:01:09.728Z,91.20
2019-02-27T07:03:39.251Z,91.60
2019-02-27T07:06:10.916Z,91.70
2019-02-27T07:08:41.405Z,91.50
2019-02-27T07:11:11.145Z,91.30
2019-02-27T07:13:41.907Z,91.40
2019-02-27T07:16:12.270Z,91.20
2019-02-27T07:21:32.861Z,91.60
2019-02-27T07:24:01.661Z,91.60
2019-02-27T07:26:31.227Z,91.60
2019-02-27T07:29:01.769Z,91.10
2019-02-27T07:31:32.892Z,91.20
2019-02-27T07:34:06.389Z,91.20
2019-02-27T07:36:38.573Z,90.90
2019-02-27T07:39:09.614Z,90.90
2019-02-27T07:41:41.888Z,91.10
2019-02-27T07:44:11.548Z,91.30
2019-02-27T07:46:59.931Z,91.40
2019-02-27T07:49:30.943Z,91.50
2019-02-27T07:51:58.830Z,91.70
2019-02-27T07:54:28.996Z,91.80
2019-02-27T07:56:57.858Z,91.70
2019-02-27T07:59:26.527Z,91.80
2019-02-27T08:01:55.189Z,91.20
2019-02-27T08:04:23.808Z,91.00
2019-02-27T08:06:52.462Z,90.90
2019-02-27T08:09:21.359Z,90.60
2019-02-27T08:11:49.945Z,90.20
2019-02-27T08:14:18.582Z,90.10
2019-02-27T08:16:48.103Z,90.00
2019-02-27T08:19:16.738Z,89.30
2019-02-27T08:21:45.394Z,88.30
2019-02-27T08:24:14.452Z,88.60
2019-02-27T08:26:43.077Z,87.90
2019-02-27T08:29:11.735Z,87.40
2019-02-27T08:31:40.275Z,87.60
2019-02-27T08:34:08.918Z,87.30
2019-02-27T08:36:37.529Z,87.10
2019-02-27T08:39:06.285Z,87.10
2019-02-27T08:41:34.937Z,86.40
2019-02-27T08:44:03.564Z,85.50
2019-02-27T08:46:33.984Z,84.50
2019-02-27T08:49:02.471Z,83.60
2019-02-27T08:51:31.099Z,83.60
2019-02-27T08:53:59.919Z,82.00
2019-02-27T08:56:30.067Z,81.80
2019-02-27T08:58:58.816Z,81.20
2019-02-27T09:01:27.449Z,81.40
2019-02-27T09:03:56.990Z,81.10
2019-02-27T09:06:27.539Z,79.80
2019-02-27T09:08:55.934Z,80.10
2019-02-27T09:11:24.699Z,79.10
2019-02-27T09:13:53.354Z,78.20
2019-02-27T09:16:23.040Z,79.80
2019-02-27T09:18:52.274Z,80.30
2019-02-27T09:21:20.933Z,79.60
2019-02-27T09:23:49.538Z,79.20
2019-02-27T09:26:18.102Z,80.20
2019-02-27T09:28:46.758Z,77.20
2019-02-27T09:31:15.417Z,79.10
2019-02-27T09:33:44.035Z,76.90
2019-02-27T09:36:12.704Z,77.70
2019-02-27T09:38:41.313Z,75.80
2019-02-27T09:41:12.388Z,75.60
2019-02-27T09:43:40.214Z,72.60
2019-02-27T09:46:09.152Z,74.10
2019-02-27T09:48:37.770Z,72.50
2019-02-27T09:51:06.430Z,73.20
2019-02-27T09:53:36.801Z,73.20
2019-02-27T09:56:05.669Z,74.80
2019-02-27T09:58:34.351Z,75.30
2019-02-27T10:01:14.488Z,74.60
2019-02-27T10:03:43.160Z,71.00
2019-02-27T10:06:11.786Z,71.50
2019-02-27T10:08:40.431Z,69.70
2019-02-27T10:11:08.971Z,70.30
2019-02-27T10:13:38.515Z,67.40
2019-02-27T10:16:07.248Z,67.10
2019-02-27T10:18:36.892Z,68.20
2019-02-27T10:21:05.540Z,67.90
2019-02-27T10:23:34.483Z,64.90
2019-02-27T10:26:03.065Z,67.70
2019-02-27T10:28:31.682Z,69.40
2019-02-27T10:31:00.336Z,66.90
2019-02-27T10:33:28.998Z,66.30
2019-02-27T10:35:57.654Z,66.10
2019-02-27T10:38:27.282Z,66.10
2019-02-27T10:40:55.917Z,63.30
2019-02-27T10:43:24.569Z,65.40
2019-02-27T10:45:54.549Z,67.30
2019-02-27T10:48:23.204Z,64.20
2019-02-27T10:50:51.855Z,66.00
2019-02-27T10:53:20.505Z,60.70
2019-02-27T10:55:49.997Z,62.20
2019-02-27T10:58:18.671Z,61.40
2019-02-27T11:00:48.745Z,62.00
2019-02-27T11:03:17.404Z,60.80
2019-02-27T11:05:46.031Z,57.90
2019-02-27T11:08:14.692Z,57.10
2019-02-27T11:10:43.354Z,59.10
2019-02-27T11:13:12.025Z,58.70
2019-02-27T11:15:41.415Z,59.80
2019-02-27T11:18:10.951Z,58.00
2019-02-27T11:20:39.606Z,61.10
2019-02-27T11:23:08.231Z,60.20
2019-02-27T11:25:37.097Z,59.60
2019-02-27T11:28:05.652Z,59.70
2019-02-27T11:30:38.849Z,58.00
2019-02-27T11:33:07.459Z,57.50
2019-02-27T11:35:36.469Z,59.10
2019-02-27T11:38:05.521Z,56.80
2019-02-27T11:40:34.170Z,57.20
2019-02-27T11:43:06.577Z,56.20
2019-02-27T11:45:33.145Z,56.90
2019-02-27T11:48:01.806Z,55.50
2019-02-27T11:50:31.449Z,55.00
2019-02-27T11:53:02.794Z,54.00
2019-02-27T11:55:30.881Z,50.00
2019-02-27T11:58:04.232Z,50.80
2019-02-27T12:00:31.378Z,50.70
2019-02-27T12:03:00.047Z,51.50
2019-02-27T12:05:33.842Z,51.50
2019-02-27T12:07:59.458Z,47.40
2019-02-27T12:10:32.604Z,49.60
2019-02-27T12:13:01.795Z,49.50
2019-02-27T12:15:30.609Z,45.80
2019-02-27T12:18:00.557Z,49.30
2019-02-27T12:20:29.943Z,50.70
2019-02-27T12:22:58.565Z,51.90
2019-02-27T12:25:29.847Z,53.40
2019-02-27T12:27:57.524Z,52.00
2019-02-27T12:30:30.983Z,52.70
2019-02-27T12:32:59.637Z,51.60
2019-02-27T12:35:33.555Z,51.50
2019-02-27T12:38:07.154Z,52.10
2019-02-27T12:40:32.845Z,50.90
2019-02-27T12:43:01.884Z,50.80
2019-02-27T12:45:30.922Z,50.80
2019-02-27T12:48:00.139Z,53.20
2019-02-27T12:50:31.092Z,53.00
2019-02-27T12:53:00.016Z,57.10
2019-02-27T12:55:28.622Z,55.00
2019-02-27T12:57:57.296Z,55.60
2019-02-27T13:00:28.230Z,55.00
2019-02-27T13:02:58.839Z,54.40
2019-02-27T13:05:27.622Z,55.00
2019-02-27T13:07:56.153Z,55.60
2019-02-27T13:10:27.079Z,51.90
2019-02-27T13:12:55.714Z,53.20
2019-02-27T13:15:26.481Z,54.00
2019-02-27T13:17:57.674Z,54.70
2019-02-27T13:20:32.633Z,54.60
2019-02-27T13:23:04.218Z,52.80
2019-02-27T13:25:31.598Z,53.10
2019-02-27T13:28:00.188Z,53.30
2019-02-27T13:30:29.417Z,54.90
2019-02-27T13:33:00.801Z,53.30
2019-02-27T13:35:29.062Z,55.00
2019-02-27T13:37:57.724Z,53.30
2019-02-27T13:40:35.378Z,52.50
2019-02-27T13:43:01.247Z,52.30
2019-02-27T13:45:31.417Z,52.80
2019-02-27T13:48:04.844Z,53.70
2019-02-27T13:50:30.380Z,51.60
2019-02-27T13:52:59.005Z,50.60
2019-02-27T13:55:28.648Z,51.70
2019-02-27T13:57:59.303Z,52.20
2019-02-27T14:00:32.451Z,52.30
2019-02-27T14:03:01.105Z,50.50
2019-02-27T14:05:32.419Z,51.90
2019-02-27T14:08:00.143Z,53.30
2019-02-27T14:10:30.618Z,51.50
2019-02-27T14:12:59.367Z,51.90
2019-02-27T14:15:31.390Z,51.00
2019-02-27T14:17:58.700Z,50.80
2019-02-27T14:20:28.965Z,49.50
2019-02-27T14:22:58.790Z,52.20
2019-02-27T14:25:33.147Z,52.60
2019-02-27T14:28:02.445Z,52.20
2019-02-27T14:30:35.551Z,52.30
2019-02-27T14:33:04.445Z,52.30
2019-02-27T14:35:36.272Z,51.70
2019-02-27T14:38:03.376Z,52.50
2019-02-27T14:40:31.994Z,52.40
2019-02-27T14:43:01.154Z,53.60
2019-02-27T14:45:29.882Z,53.00
2019-02-27T14:47:59.679Z,53.70
2019-02-27T14:50:33.477Z,53.60
2019-02-27T14:52:58.788Z,52.80
2019-02-27T14:55:27.406Z,51.80
2019-02-27T14:57:56.058Z,52.50
2019-02-27T15:00:33.171Z,54.10
2019-02-27T15:03:01.791Z,54.30
2019-02-27T15:05:30.750Z,53.50
2019-02-27T15:07:59.623Z,53.60
2019-02-27T15:10:28.269Z,54.30
2019-02-27T15:12:56.911Z,53.50
2019-02-27T15:15:30.220Z,54.00
2019-02-27T15:17:58.819Z,52.70
2019-02-27T15:20:31.051Z,53.70
2019-02-27T15:22:59.709Z,54.10
2019-02-27T15:25:28.328Z,53.70
2019-02-27T15:27:58.848Z,53.70
2019-02-27T15:30:32.504Z,54.20
2019-02-27T15:33:04.366Z,55.00
2019-02-27T15:35:31.455Z,55.90
2019-02-27T15:38:00.253Z,55.50
2019-02-27T15:40:30.240Z,56.50
2019-02-27T15:42:59.121Z,57.20
2019-02-27T15:45:28.612Z,57.50
2019-02-27T15:47:57.199Z,56.30
2019-02-27T15:50:31.110Z,57.20
2019-02-27T15:52:59.774Z,56.90
2019-02-27T15:55:32.848Z,57.50
2019-02-27T15:57:58.721Z,57.70
2019-02-27T16:00:27.952Z,57.20
2019-02-27T16:02:56.600Z,57.90
2019-02-27T16:05:30.205Z,58.80
2019-02-27T16:07:55.501Z,59.70
2019-02-27T16:10:28.913Z,59.50
2019-02-27T16:13:01.033Z,60.20
2019-02-27T16:15:29.082Z,60.30
2019-02-27T16:17:57.690Z,60.60
2019-02-27T16:20:27.410Z,60.80
2019-02-27T16:22:55.958Z,60.80
2019-02-27T16:25:26.719Z,61.10
2019-02-27T16:27:55.348Z,61.20
2019-02-27T16:30:33.004Z,61.50
2019-02-27T16:33:01.790Z,62.10
2019-02-27T16:35:30.403Z,63.00
2019-02-27T16:37:59.076Z,63.90
2019-02-27T16:40:29.821Z,64.80
2019-02-27T16:42:58.477Z,65.80
2019-02-27T16:45:32.506Z,66.50
2019-02-27T16:47:59.562Z,67.30
2019-02-27T16:50:28.368Z,68.40
2019-02-27T16:52:57.133Z,69.20
2019-02-27T16:55:26.754Z,70.30
2019-02-27T16:57:57.508Z,70.10
2019-02-27T17:00:31.610Z,70.80
2019-02-27T17:03:00.257Z,71.00
2019-02-27T17:05:29.054Z,70.90
2019-02-27T17:08:02.018Z,70.40
2019-02-27T17:10:33.616Z,72.30
2019-02-27T17:13:02.258Z,74.40
2019-02-27T17:15:34.750Z,76.80
2019-02-27T17:18:01.373Z,77.60
2019-02-27T17:20:30.235Z,77.60
2019-02-27T17:22:58.865Z,78.60
2019-02-27T17:25:29.968Z,79.90
2019-02-27T17:27:58.148Z,79.60
2019-02-27T17:30:37.781Z,81.20
2019-02-27T17:33:05.279Z,80.80
2019-02-27T17:35:34.206Z,81.40
2019-02-27T17:38:03.259Z,80.60
2019-02-27T17:40:36.300Z,81.00
2019-02-27T17:43:02.213Z,80.80
2019-02-27T17:45:30.914Z,82.30
2019-02-27T17:47:59.516Z,82.50
2019-02-27T17:50:30.969Z,84.10
2019-02-27T17:52:58.489Z,84.70
2019-02-27T17:55:27.123Z,84.60
2019-02-27T17:57:58.354Z,85.80
2019-02-27T18:00:37.934Z,86.00
2019-02-27T18:03:06.547Z,87.00
2019-02-27T18:05:35.218Z,88.30
2019-02-27T18:08:03.852Z,88.90
2019-02-27T18:10:37.257Z,90.10
2019-02-27T18:13:02.783Z,90.30
2019-02-27T18:15:31.444Z,90.50
2019-02-27T18:18:00.067Z,90.60
2019-02-27T18:20:28.775Z,91.10
2019-02-27T18:22:57.414Z,90.60
2019-02-27T18:25:26.594Z,91.00
2019-02-27T18:27:58.525Z,90.70
2019-02-27T18:30:25.508Z,90.40
2019-02-27T18:32:54.176Z,90.90
2019-02-27T18:35:22.843Z,90.90
2019-02-27T18:37:54.285Z,90.70
2019-02-27T18:40:22.165Z,91.20
2019-02-27T18:42:55.255Z,90.70
2019-02-27T18:45:23.849Z,91.30
2019-02-27T18:47:52.522Z,90.90
2019-02-27T18:50:21.074Z,91.20
2019-02-27T18:52:50.092Z,92.00
2019-02-27T18:55:18.755Z,91.90
2019-02-27T18:57:47.659Z,91.80
2019-02-27T19:00:21.777Z,91.60
2019-02-27T19:02:55.467Z,91.70
2019-02-27T19:05:24.424Z,92.30
2019-02-27T19:07:54.762Z,92.20
2019-02-27T19:10:23.482Z,92.00
2019-02-27T19:12:52.201Z,92.30
2019-02-27T19:15:22.866Z,92.00
2019-02-27T19:17:51.660Z,92.50
2019-02-27T19:20:26.207Z,92.20
2019-02-27T19:22:54.837Z,92.30
2019-02-27T19:25:23.560Z,91.80
2019-02-27T19:27:52.563Z,91.50
2019-02-27T19:30:21.227Z,91.40
2019-02-27T19:32:49.843Z,91.30
2019-02-27T19:35:21.522Z,91.70
2019-02-27T19:37:48.806Z,91.60
2019-02-27T19:40:19.089Z,92.10
2019-02-27T19:42:53.794Z,92.20
2019-02-27T19:45:22.450Z,92.20
2019-02-27T19:47:54.809Z,92.00
2019-02-27T19:50:21.412Z,91.70
2019-02-27T19:52:50.024Z,92.30
2019-02-27T19:55:20.214Z,91.70
2019-02-27T19:57:48.857Z,91.70
2019-02-27T20:00:26.119Z,91.60
2019-02-27T20:02:57.448Z,91.60
2019-02-27T20:05:25.166Z,91.60
2019-02-27T20:07:54.553Z,91.50
2019-02-27T20:10:23.183Z,91.70
2019-02-27T20:12:53.680Z,91.90
2019-02-27T20:15:23.529Z,92.20
2019-02-27T20:17:52.240Z,92.30
2019-02-27T20:20:22.140Z,92.40
2019-02-27T20:22:53.676Z,92.30
2019-02-27T20:25:24.166Z,92.50
2019-02-27T20:27:52.801Z,92.80
2019-02-27T20:30:22.462Z,92.70
2019-02-27T20:32:51.080Z,93.20
2019-02-27T20:35:20.760Z,93.00
2019-02-27T20:37:50.553Z,92.90
2019-02-27T20:40:20.281Z,92.70
2019-02-27T20:42:50.445Z,92.70
2019-02-27T20:45:21.510Z,92.70
2019-02-27T20:47:51.320Z,93.00
2019-02-27T20:50:39.317Z,92.90
2019-02-27T20:53:09.572Z,92.80
2019-02-27T20:55:41.358Z,92.40
2019-02-27T20:58:10.021Z,92.60
2019-02-27T21:00:39.046Z,92.20
2019-02-27T21:03:07.699Z,92.40
2019-02-27T21:05:36.720Z,92.40
2019-02-27T21:08:05.686Z,92.70
2019-02-27T21:10:36.251Z,92.40
2019-02-27T21:13:05.410Z,92.90
2019-02-27T21:15:34.621Z,92.50
2019-02-27T21:18:04.667Z,92.90
2019-02-27T21:20:33.753Z,93.10
2019-02-27T21:23:04.737Z,93.60
2019-02-27T21:25:35.177Z,94.00
2019-02-27T21:28:07.069Z,93.30
2019-02-27T21:30:34.765Z,94.20
2019-02-27T21:33:08.193Z,94.20
2019-02-27T21:35:35.448Z,94.20
2019-02-27T21:38:05.849Z,94.20
2019-02-27T21:40:36.230Z,94.10
2019-02-27T21:43:05.419Z,93.70
2019-02-27T21:45:37.133Z,94.00
2019-02-27T21:48:04.332Z,93.50
2019-02-27T21:50:32.991Z,93.30
2019-02-27T21:53:01.779Z,93.40
2019-02-27T21:55:30.464Z,93.10
2019-02-27T21:57:59.209Z,93.40
2019-02-27T22:00:35.302Z,93.50
2019-02-27T22:03:03.621Z,93.40
2019-02-27T22:05:30.389Z,93.20
2019-02-27T22:07:59.054Z,93.20
2019-02-27T22:10:27.783Z,93.50
2019-02-27T22:12:56.907Z,93.00
2019-02-27T22:15:30.857Z,93.50
2019-02-27T22:17:59.588Z,93.40
2019-02-27T22:20:28.247Z,93.00
2019-02-27T22:22:58.733Z,93.20
2019-02-27T22:25:30.469Z,92.80
2019-02-27T22:27:58.547Z,92.80
2019-02-27T22:30:28.005Z,92.50
2019-02-27T22:32:56.808Z,92.60
2019-02-27T22:35:25.495Z,92.50
2019-02-27T22:37:54.282Z,92.40
2019-02-27T22:40:23.930Z,92.70
2019-02-27T22:42:53.799Z,92.90
2019-02-27T22:45:23.467Z,92.40
2019-02-27T22:47:53.996Z,92.90
2019-02-27T22:50:22.451Z,92.80
2019-02-27T22:52:54.623Z,92.80
2019-02-27T22:55:21.510Z,92.80
2019-02-27T22:57:50.178Z,92.80
2019-02-27T23:00:55.884Z,92.90
2019-02-27T23:03:27.669Z,93.20
2019-02-27T23:05:56.303Z,92.90
2019-02-27T23:08:24.966Z,93.20
2019-02-27T23:10:55.817Z,92.70
2019-02-27T23:13:23.985Z,93.10
2019-02-27T23:15:58.166Z,93.10
2019-02-27T23:18:23.571Z,93.00
2019-02-27T23:20:52.576Z,93.00
2019-02-27T23:23:24.489Z,92.60
2019-02-27T23:25:53.452Z,93.20
2019-02-27T23:28:22.238Z,92.90
2019-02-27T23:30:50.924Z,92.90
2019-02-27T23:33:19.651Z,93.10
2019-02-27T23:35:50.175Z,92.90
2019-02-27T23:38:18.816Z,93.00
2019-02-27T23:40:48.965Z,93.20
2019-02-27T23:43:19.653Z,92.90
2019-02-27T23:45:48.263Z,93.20
2019-02-27T23:48:17.045Z,93.00
2019-02-27T23:50:45.784Z,93.00
2019-02-27T23:53:15.193Z,93.20
2019-02-27T23:55:45.397Z,93.40
2019-02-27T23:58:16.860Z,93.30
